sensor_id;sensor_type;location;lat;lon;timestamp;pressure;altitude;pressure_sealevel;temperature;humidity
25350;BME280;13302;48.796;11.978;2023-07-13T00:00:19;96733.38;;;19.35;48.62
25350;BME280;13302;48.796;11.978;2023-07-13T00:03:07;96748.59;;;19.34;48.63
25350;BME280;13302;48.796;11.978;2023-07-13T00:05:59;96753.03;;;19.32;48.66
25350;BME280;13302;48.796;11.978;2023-07-13T00:08:46;96762.66;;;19.31;48.59
25350;BME280;13302;48.796;11.978;2023-07-13T00:11:34;96770.25;;;19.30;48.35
25350;BME280;13302;48.796;11.978;2023-07-13T00:14:22;96775.84;;;19.30;48.40
25350;BME280;13302;48.796;11.978;2023-07-13T00:17:09;96769.88;;;19.28;48.65
25350;BME280;13302;48.796;11.978;2023-07-13T00:19:56;96762.66;;;19.27;48.47
25350;BME280;13302;48.796;11.978;2023-07-13T00:22:44;96775.88;;;19.26;48.61
25350;BME280;13302;48.796;11.978;2023-07-13T00:25:31;96770.72;;;19.25;48.68
25350;BME280;13302;48.796;11.978;2023-07-13T00:28:18;96767.91;;;19.25;48.92
25350;BME280;13302;48.796;11.978;2023-07-13T00:31:05;96759.50;;;19.25;48.82
25350;BME280;13302;48.796;11.978;2023-07-13T00:33:55;96753.09;;;19.24;48.85
25350;BME280;13302;48.796;11.978;2023-07-13T00:36:42;96743.09;;;19.23;48.62
25350;BME280;13302;48.796;11.978;2023-07-13T00:39:29;96740.69;;;19.22;48.93
25350;BME280;13302;48.796;11.978;2023-07-13T00:42:16;96742.28;;;19.23;48.67
25350;BME280;13302;48.796;11.978;2023-07-13T00:47:57;96749.09;;;19.22;48.98
25350;BME280;13302;48.796;11.978;2023-07-13T00:50:47;96760.72;;;19.20;48.69
25350;BME280;13302;48.796;11.978;2023-07-13T00:53:36;96755.94;;;19.21;49.00
25350;BME280;13302;48.796;11.978;2023-07-13T00:56:23;96748.72;;;19.20;48.99
25350;BME280;13302;48.796;11.978;2023-07-13T00:59:13;96749.09;;;19.18;49.21
25350;BME280;13302;48.796;11.978;2023-07-13T01:02:03;96758.28;;;19.19;48.96
25350;BME280;13302;48.796;11.978;2023-07-13T01:04:50;96765.91;;;19.18;49.03
25350;BME280;13302;48.796;11.978;2023-07-13T01:07:37;96752.69;;;19.19;49.25
25350;BME280;13302;48.796;11.978;2023-07-13T01:10:25;96754.69;;;19.18;49.24
25350;BME280;13302;48.796;11.978;2023-07-13T01:13:12;96760.69;;;19.17;49.32
25350;BME280;13302;48.796;11.978;2023-07-13T01:16:04;96758.31;;;19.15;49.40
25350;BME280;13302;48.796;11.978;2023-07-13T01:18:52;96751.91;;;19.15;49.29
25350;BME280;13302;48.796;11.978;2023-07-13T01:21:39;96753.91;;;19.14;49.23
25350;BME280;13302;48.796;11.978;2023-07-13T01:24:29;96752.31;;;19.13;49.45
25350;BME280;13302;48.796;11.978;2023-07-13T01:27:21;96753.94;;;19.11;49.76
25350;BME280;13302;48.796;11.978;2023-07-13T01:30:10;96750.75;;;19.12;49.61
25350;BME280;13302;48.796;11.978;2023-07-13T01:32:58;96743.91;;;19.13;49.79
25350;BME280;13302;48.796;11.978;2023-07-13T01:35:46;96749.50;;;19.13;49.88
25350;BME280;13302;48.796;11.978;2023-07-13T01:38:36;96736.31;;;19.14;50.04
25350;BME280;13302;48.796;11.978;2023-07-13T01:41:23;96741.09;;;19.13;49.70
25350;BME280;13302;48.796;11.978;2023-07-13T01:44:12;96729.91;;;19.13;50.00
25350;BME280;13302;48.796;11.978;2023-07-13T01:46:59;96725.09;;;19.14;49.88
25350;BME280;13302;48.796;11.978;2023-07-13T01:49:46;96730.69;;;19.14;50.00
25350;BME280;13302;48.796;11.978;2023-07-13T01:52:34;96739.53;;;19.12;50.00
25350;BME280;13302;48.796;11.978;2023-07-13T01:55:22;96731.91;;;19.13;50.05
25350;BME280;13302;48.796;11.978;2023-07-13T01:58:09;96733.94;;;19.12;50.08
25350;BME280;13302;48.796;11.978;2023-07-13T02:00:56;96717.91;;;19.09;50.27
25350;BME280;13302;48.796;11.978;2023-07-13T02:03:43;96721.94;;;19.08;50.32
25350;BME280;13302;48.796;11.978;2023-07-13T02:06:30;96717.53;;;19.07;50.24
25350;BME280;13302;48.796;11.978;2023-07-13T02:09:17;96717.94;;;19.06;50.24
25350;BME280;13302;48.796;11.978;2023-07-13T02:12:04;96713.13;;;19.06;50.21
25350;BME280;13302;48.796;11.978;2023-07-13T02:14:53;96719.53;;;19.07;50.35
25350;BME280;13302;48.796;11.978;2023-07-13T02:17:40;96718.38;;;19.04;50.50
25350;BME280;13302;48.796;11.978;2023-07-13T02:20:27;96711.97;;;19.04;50.61
25350;BME280;13302;48.796;11.978;2023-07-13T02:23:15;96729.59;;;19.04;50.41
25350;BME280;13302;48.796;11.978;2023-07-13T02:26:03;96730.78;;;19.03;50.54
25350;BME280;13302;48.796;11.978;2023-07-13T02:28:50;96737.19;;;19.04;50.24
25350;BME280;13302;48.796;11.978;2023-07-13T02:31:39;96742.78;;;19.04;50.25
25350;BME280;13302;48.796;11.978;2023-07-13T02:34:26;96742.38;;;19.02;50.31
25350;BME280;13302;48.796;11.978;2023-07-13T02:37:13;96742.38;;;19.02;50.33
25350;BME280;13302;48.796;11.978;2023-07-13T02:40:00;96741.59;;;19.01;50.54
25350;BME280;13302;48.796;11.978;2023-07-13T02:42:49;96742.38;;;19.02;50.43
25350;BME280;13302;48.796;11.978;2023-07-13T02:45:36;96743.59;;;19.01;50.58
25350;BME280;13302;48.796;11.978;2023-07-13T02:48:23;96751.22;;;19.00;50.66
25350;BME280;13302;48.796;11.978;2023-07-13T02:51:10;96752.78;;;19.01;50.74
25350;BME280;13302;48.796;11.978;2023-07-13T02:53:57;96756.81;;;19.00;50.66
25350;BME280;13302;48.796;11.978;2023-07-13T02:56:45;96758.81;;;19.00;50.25
25350;BME280;13302;48.796;11.978;2023-07-13T02:59:32;96755.22;;;18.99;50.61
25350;BME280;13302;48.796;11.978;2023-07-13T03:02:19;96763.63;;;18.99;50.57
25350;BME280;13302;48.796;11.978;2023-07-13T03:05:09;96764.81;;;18.98;50.40
25350;BME280;13302;48.796;11.978;2023-07-13T03:07:59;96770.44;;;18.98;50.61
25350;BME280;13302;48.796;11.978;2023-07-13T03:10:46;96760.03;;;18.95;50.60
25350;BME280;13302;48.796;11.978;2023-07-13T03:13:34;96776.06;;;18.95;50.52
25350;BME280;13302;48.796;11.978;2023-07-13T03:16:23;96783.28;;;18.92;50.59
25350;BME280;13302;48.796;11.978;2023-07-13T03:19:12;96780.06;;;18.90;50.47
25350;BME280;13302;48.796;11.978;2023-07-13T03:22:01;96781.28;;;18.89;50.63
25350;BME280;13302;48.796;11.978;2023-07-13T03:24:49;96783.28;;;18.89;50.51
25350;BME280;13302;48.796;11.978;2023-07-13T03:27:37;96788.09;;;18.88;50.74
25350;BME280;13302;48.796;11.978;2023-07-13T03:30:27;96793.72;;;18.88;50.82
25350;BME280;13302;48.796;11.978;2023-07-13T03:33:14;96791.69;;;18.85;50.78
25350;BME280;13302;48.796;11.978;2023-07-13T03:36:03;96790.91;;;18.85;50.58
25350;BME280;13302;48.796;11.978;2023-07-13T03:38:53;96797.31;;;18.81;50.84
25350;BME280;13302;48.796;11.978;2023-07-13T03:41:44;96798.13;;;18.82;50.52
25350;BME280;13302;48.796;11.978;2023-07-13T03:44:32;96795.31;;;18.82;50.85
25350;BME280;13302;48.796;11.978;2023-07-13T03:47:19;96806.53;;;18.82;50.53
25350;BME280;13302;48.796;11.978;2023-07-13T03:50:07;96802.53;;;18.79;50.47
25350;BME280;13302;48.796;11.978;2023-07-13T03:52:55;96812.94;;;18.79;50.75
25350;BME280;13302;48.796;11.978;2023-07-13T03:55:43;96815.75;;;18.79;50.66
25350;BME280;13302;48.796;11.978;2023-07-13T03:58:34;96811.75;;;18.76;50.59
25350;BME280;13302;48.796;11.978;2023-07-13T04:01:29;96808.94;;;18.76;50.46
25350;BME280;13302;48.796;11.978;2023-07-13T04:04:16;96810.16;;;18.75;50.45
25350;BME280;13302;48.796;11.978;2023-07-13T04:07:03;96819.34;;;18.76;50.47
25350;BME280;13302;48.796;11.978;2023-07-13T04:09:50;96816.97;;;18.74;50.48
25350;BME280;13302;48.796;11.978;2023-07-13T04:12:37;96814.56;;;18.73;50.79
25350;BME280;13302;48.796;11.978;2023-07-13T04:15:24;96805.34;;;18.72;50.59
25350;BME280;13302;48.796;11.978;2023-07-13T04:18:11;96804.56;;;18.72;50.65
25350;BME280;13302;48.796;11.978;2023-07-13T04:20:58;96799.75;;;18.72;50.85
25350;BME280;13302;48.796;11.978;2023-07-13T04:23:46;96800.16;;;18.74;50.66
25350;BME280;13302;48.796;11.978;2023-07-13T04:26:33;96807.38;;;18.75;50.67
25350;BME280;13302;48.796;11.978;2023-07-13T04:29:23;96802.13;;;18.77;50.52
25350;BME280;13302;48.796;11.978;2023-07-13T04:32:10;96794.16;;;18.79;50.77
25350;BME280;13302;48.796;11.978;2023-07-13T04:34:57;96805.34;;;18.79;50.54
25350;BME280;13302;48.796;11.978;2023-07-13T04:37:47;96812.94;;;18.79;50.66
25350;BME280;13302;48.796;11.978;2023-07-13T04:40:37;96816.13;;;18.81;50.43
25350;BME280;13302;48.796;11.978;2023-07-13T04:43:24;96823.31;;;18.82;50.56
25350;BME280;13302;48.796;11.978;2023-07-13T04:46:15;96824.16;;;18.79;50.68
25350;BME280;13302;48.796;11.978;2023-07-13T04:49:04;96826.13;;;18.82;50.64
25350;BME280;13302;48.796;11.978;2023-07-13T04:51:51;96820.53;;;18.82;50.43
25350;BME280;13302;48.796;11.978;2023-07-13T04:54:38;96824.94;;;18.83;50.52
25350;BME280;13302;48.796;11.978;2023-07-13T04:57:26;96830.09;;;18.85;50.30
25350;BME280;13302;48.796;11.978;2023-07-13T05:00:14;96826.50;;;18.84;50.29
25350;BME280;13302;48.796;11.978;2023-07-13T05:03:03;96839.31;;;18.85;50.46
25350;BME280;13302;48.796;11.978;2023-07-13T05:05:59;96845.34;;;18.84;50.17
25350;BME280;13302;48.796;11.978;2023-07-13T05:08:46;96846.91;;;18.85;49.94
25350;BME280;13302;48.796;11.978;2023-07-13T05:11:33;96847.72;;;18.85;50.36
25350;BME280;13302;48.796;11.978;2023-07-13T05:14:20;96854.13;;;18.86;50.11
25350;BME280;13302;48.796;11.978;2023-07-13T05:17:07;96856.53;;;18.87;50.21
25350;BME280;13302;48.796;11.978;2023-07-13T05:19:54;96858.13;;;18.88;50.14
25350;BME280;13302;48.796;11.978;2023-07-13T05:22:42;96867.31;;;18.89;49.98
25350;BME280;13302;48.796;11.978;2023-07-13T05:25:29;96866.91;;;18.90;50.01
25350;BME280;13302;48.796;11.978;2023-07-13T05:28:16;96872.50;;;18.90;49.83
25350;BME280;13302;48.796;11.978;2023-07-13T05:31:05;96876.13;;;18.91;49.52
25350;BME280;13302;48.796;11.978;2023-07-13T05:33:53;96872.91;;;18.89;49.24
25350;BME280;13302;48.796;11.978;2023-07-13T05:36:41;96877.75;;;18.88;49.22
25350;BME280;13302;48.796;11.978;2023-07-13T05:39:28;96872.53;;;18.87;49.19
25350;BME280;13302;48.796;11.978;2023-07-13T05:42:15;96873.72;;;18.86;49.07
25350;BME280;13302;48.796;11.978;2023-07-13T05:45:02;96876.13;;;18.87;49.26
25350;BME280;13302;48.796;11.978;2023-07-13T05:47:50;96882.53;;;18.88;48.83
25350;BME280;13302;48.796;11.978;2023-07-13T05:50:37;96893.31;;;18.89;48.50
25350;BME280;13302;48.796;11.978;2023-07-13T05:53:24;96884.53;;;18.87;48.12
25350;BME280;13302;48.796;11.978;2023-07-13T05:56:11;96878.53;;;18.85;48.37
25350;BME280;13302;48.796;11.978;2023-07-13T05:58:58;96878.53;;;18.85;48.08
25350;BME280;13302;48.796;11.978;2023-07-13T06:01:45;96884.94;;;18.86;48.13
25350;BME280;13302;48.796;11.978;2023-07-13T06:04:32;96884.94;;;18.86;48.01
25350;BME280;13302;48.796;11.978;2023-07-13T06:07:19;96896.13;;;18.86;47.91
25350;BME280;13302;48.796;11.978;2023-07-13T06:10:06;96902.16;;;18.88;47.48
25350;BME280;13302;48.796;11.978;2023-07-13T06:12:54;96904.94;;;18.88;47.25
25350;BME280;13302;48.796;11.978;2023-07-13T06:15:41;96897.72;;;18.90;47.53
25350;BME280;13302;48.796;11.978;2023-07-13T06:18:27;96897.72;;;18.90;47.18
25350;BME280;13302;48.796;11.978;2023-07-13T06:21:17;96906.53;;;18.92;47.00
25350;BME280;13302;48.796;11.978;2023-07-13T06:24:05;96915.34;;;18.91;46.93
25350;BME280;13302;48.796;11.978;2023-07-13T06:26:52;96911.34;;;18.88;46.53
25350;BME280;13302;48.796;11.978;2023-07-13T06:29:39;96913.72;;;18.90;46.73
25350;BME280;13302;48.796;11.978;2023-07-13T06:32:26;96908.13;;;18.90;46.46
25350;BME280;13302;48.796;11.978;2023-07-13T06:35:13;96906.94;;;18.91;46.27
25350;BME280;13302;48.796;11.978;2023-07-13T06:38:01;96909.72;;;18.91;46.47
25350;BME280;13302;48.796;11.978;2023-07-13T06:40:49;96913.72;;;18.93;46.41
25350;BME280;13302;48.796;11.978;2023-07-13T06:43:36;96904.53;;;18.96;46.42
25350;BME280;13302;48.796;11.978;2023-07-13T06:46:23;96912.91;;;19.00;46.29
25350;BME280;13302;48.796;11.978;2023-07-13T06:49:10;96900.09;;;19.02;45.63
25350;BME280;13302;48.796;11.978;2023-07-13T06:51:57;96910.47;;;19.05;45.24
25350;BME280;13302;48.796;11.978;2023-07-13T06:54:44;96916.88;;;19.06;44.59
25350;BME280;13302;48.796;11.978;2023-07-13T06:57:31;96924.47;;;19.05;44.53
25350;BME280;13302;48.796;11.978;2023-07-13T07:00:18;96918.47;;;19.07;44.88
25350;BME280;13302;48.796;11.978;2023-07-13T07:03:05;96921.66;;;19.09;44.52
25350;BME280;13302;48.796;11.978;2023-07-13T07:05:52;96914.03;;;19.13;44.67
25350;BME280;13302;48.796;11.978;2023-07-13T07:08:40;96921.22;;;19.17;44.28
25350;BME280;13302;48.796;11.978;2023-07-13T07:11:27;96922.03;;;19.21;43.88
25350;BME280;13302;48.796;11.978;2023-07-13T07:14:14;96924.06;;;19.24;44.29
25350;BME280;13302;48.796;11.978;2023-07-13T07:17:01;96934.44;;;19.27;44.15
25350;BME280;13302;48.796;11.978;2023-07-13T07:19:48;96930.44;;;19.29;43.79
25350;BME280;13302;48.796;11.978;2023-07-13T07:22:35;96934.41;;;19.35;43.63
25350;BME280;13302;48.796;11.978;2023-07-13T07:25:22;96940.78;;;19.39;44.03
25350;BME280;13302;48.796;11.978;2023-07-13T07:28:09;96939.19;;;19.41;43.72
25350;BME280;13302;48.796;11.978;2023-07-13T07:30:59;96940.38;;;19.44;43.12
25350;BME280;13302;48.796;11.978;2023-07-13T07:33:49;96949.56;;;19.48;43.34
25350;BME280;13302;48.796;11.978;2023-07-13T07:36:39;96953.56;;;19.50;43.01
25350;BME280;13302;48.796;11.978;2023-07-13T07:39:29;96947.97;;;19.54;42.73
25350;BME280;13302;48.796;11.978;2023-07-13T07:42:16;96946.31;;;19.56;43.06
25350;BME280;13302;48.796;11.978;2023-07-13T07:45:03;96940.69;;;19.60;42.84
25350;BME280;13302;48.796;11.978;2023-07-13T07:47:51;96950.69;;;19.64;42.66
25350;BME280;13302;48.796;11.978;2023-07-13T07:50:38;96947.06;;;19.67;42.80
25350;BME280;13302;48.796;11.978;2023-07-13T07:53:25;96940.22;;;19.72;42.16
25350;BME280;13302;48.796;11.978;2023-07-13T07:56:12;96938.59;;;19.74;42.16
25350;BME280;13302;48.796;11.978;2023-07-13T07:59:02;96940.56;;;19.81;42.52
25350;BME280;13302;48.796;11.978;2023-07-13T08:01:52;96952.59;;;19.85;42.36
25350;BME280;13302;48.796;11.978;2023-07-13T08:04:42;96963.00;;;19.88;41.68
25350;BME280;13302;48.796;11.978;2023-07-13T08:07:33;96962.59;;;19.90;41.32
25350;BME280;13302;48.796;11.978;2023-07-13T08:10:20;96959.38;;;19.91;41.64
25350;BME280;13302;48.796;11.978;2023-07-13T08:13:07;96963.38;;;19.94;41.32
25350;BME280;13302;48.796;11.978;2023-07-13T08:15:58;96977.41;;;19.94;41.39
25350;BME280;13302;48.796;11.978;2023-07-13T08:18:45;96988.63;;;19.94;41.04
25350;BME280;13302;48.796;11.978;2023-07-13T08:21:33;96977.41;;;19.94;41.03
25350;BME280;13302;48.796;11.978;2023-07-13T08:24:22;96975.41;;;19.94;41.16
25350;BME280;13302;48.796;11.978;2023-07-13T08:27:11;96984.63;;;19.95;41.02
25350;BME280;13302;48.796;11.978;2023-07-13T08:29:58;96982.59;;;19.95;41.03
25350;BME280;13302;48.796;11.978;2023-07-13T08:32:45;96992.25;;;19.94;40.74
25350;BME280;13302;48.796;11.978;2023-07-13T08:35:32;96991.00;;;19.95;40.70
25350;BME280;13302;48.796;11.978;2023-07-13T08:38:19;96997.41;;;19.96;40.99
25350;BME280;13302;48.796;11.978;2023-07-13T08:41:15;96998.22;;;19.96;40.38
25350;BME280;13302;48.796;11.978;2023-07-13T08:44:14;96993.81;;;19.99;40.60
25350;BME280;13302;48.796;11.978;2023-07-13T08:47:04;96993.38;;;20.00;40.53
25350;BME280;13302;48.796;11.978;2023-07-13T08:49:53;96992.19;;;20.01;40.21
25350;BME280;13302;48.796;11.978;2023-07-13T08:52:41;97003.78;;;20.03;40.11
25350;BME280;13302;48.796;11.978;2023-07-13T08:55:33;97009.00;;;20.05;40.06
25350;BME280;13302;48.796;11.978;2023-07-13T08:58:21;97002.56;;;20.08;39.81
25350;BME280;13302;48.796;11.978;2023-07-13T09:01:17;97012.56;;;20.09;39.30
25350;BME280;13302;48.796;11.978;2023-07-13T09:04:14;97007.78;;;20.09;39.47
25350;BME280;13302;48.796;11.978;2023-07-13T09:10:12;97005.38;;;20.08;38.02
25350;BME280;13302;48.796;11.978;2023-07-13T09:13:12;97004.97;;;20.09;38.22
25350;BME280;13302;48.796;11.978;2023-07-13T09:16:03;96988.91;;;20.13;38.95
25350;BME280;13302;48.796;11.978;2023-07-13T09:18:53;96999.28;;;20.16;39.04
25350;BME280;13302;48.796;11.978;2023-07-13T09:21:44;97007.69;;;20.20;38.53
25350;BME280;13302;48.796;11.978;2023-07-13T09:24:41;97002.47;;;20.22;38.25
25350;BME280;13302;48.796;11.978;2023-07-13T09:27:39;97008.47;;;20.24;37.76
25350;BME280;13302;48.796;11.978;2023-07-13T09:30:51;97003.63;;;20.28;37.86
25350;BME280;13302;48.796;11.978;2023-07-13T09:33:42;96999.97;;;20.35;38.49
25350;BME280;13302;48.796;11.978;2023-07-13T09:36:32;97007.97;;;20.40;38.20
25350;BME280;13302;48.796;11.978;2023-07-13T09:39:27;97010.75;;;20.43;37.58
25350;BME280;13302;48.796;11.978;2023-07-13T09:42:21;97002.31;;;20.43;37.16
25350;BME280;13302;48.796;11.978;2023-07-13T09:45:08;97003.94;;;20.48;37.53
25350;BME280;13302;48.796;11.978;2023-07-13T09:48:04;97005.50;;;20.49;36.23
25350;BME280;13302;48.796;11.978;2023-07-13T09:50:54;97012.72;;;20.50;37.17
25350;BME280;13302;48.796;11.978;2023-07-13T09:53:43;97004.25;;;20.53;36.97
25350;BME280;13302;48.796;11.978;2023-07-13T09:56:31;97005.84;;;20.58;37.10
25350;BME280;13302;48.796;11.978;2023-07-13T09:59:20;97013.44;;;20.61;36.75
25350;BME280;13302;48.796;11.978;2023-07-13T10:02:31;97010.22;;;20.62;36.03
25350;BME280;13302;48.796;11.978;2023-07-13T10:05:22;97004.56;;;20.66;36.27
25350;BME280;13302;48.796;11.978;2023-07-13T10:08:25;97006.13;;;20.71;35.83
25350;BME280;13302;48.796;11.978;2023-07-13T10:11:22;97004.09;;;20.75;35.64
25350;BME280;13302;48.796;11.978;2023-07-13T10:14:18;97007.25;;;20.80;35.46
25350;BME280;13302;48.796;11.978;2023-07-13T10:17:12;97010.03;;;20.84;35.23
25350;BME280;13302;48.796;11.978;2023-07-13T10:20:01;97010.00;;;20.87;34.34
25350;BME280;13302;48.796;11.978;2023-07-13T10:22:54;97015.16;;;20.92;34.19
25350;BME280;13302;48.796;11.978;2023-07-13T10:25:46;97009.50;;;20.96;34.32
25350;BME280;13302;48.796;11.978;2023-07-13T10:28:36;97014.72;;;20.97;33.77
25350;BME280;13302;48.796;11.978;2023-07-13T10:31:24;97021.13;;;21.01;33.89
25350;BME280;13302;48.796;11.978;2023-07-13T10:34:12;97026.31;;;21.03;33.36
25350;BME280;13302;48.796;11.978;2023-07-13T10:37:00;97009.81;;;21.05;33.33
25350;BME280;13302;48.796;11.978;2023-07-13T10:39:50;97007.38;;;21.07;33.36
25350;BME280;13302;48.796;11.978;2023-07-13T10:42:42;97012.19;;;21.10;32.69
25350;BME280;13302;48.796;11.978;2023-07-13T10:45:34;97004.16;;;21.12;32.86
25350;BME280;13302;48.796;11.978;2023-07-13T10:48:23;97006.94;;;21.16;33.04
25350;BME280;13302;48.796;11.978;2023-07-13T10:51:14;97007.31;;;21.18;32.55
25350;BME280;13302;48.796;11.978;2023-07-13T10:57:15;97013.28;;;21.23;32.73
25350;BME280;13302;48.796;11.978;2023-07-13T11:00:16;97002.06;;;21.20;31.29
25350;BME280;13302;48.796;11.978;2023-07-13T11:03:04;97017.31;;;21.22;32.07
25350;BME280;13302;48.796;11.978;2023-07-13T11:06:27;97005.31;;;21.18;30.56
25350;BME280;13302;48.796;11.978;2023-07-13T11:09:31;97009.34;;;21.17;31.32
25350;BME280;13302;48.796;11.978;2023-07-13T11:15:11;96997.28;;;21.17;31.65
25350;BME280;13302;48.796;11.978;2023-07-13T11:18:04;97012.16;;;21.17;31.61
25350;BME280;13302;48.796;11.978;2023-07-13T11:20:51;97016.13;;;21.20;32.28
25350;BME280;13302;48.796;11.978;2023-07-13T11:23:42;97010.50;;;21.20;32.08
25350;BME280;13302;48.796;11.978;2023-07-13T11:29:37;97021.34;;;21.21;31.45
25350;BME280;13302;48.796;11.978;2023-07-13T11:32:30;97008.50;;;21.20;31.43
25350;BME280;13302;48.796;11.978;2023-07-13T11:35:23;96994.38;;;21.24;31.58
25350;BME280;13302;48.796;11.978;2023-07-13T11:38:22;96994.34;;;21.27;31.73
25350;BME280;13302;48.796;11.978;2023-07-13T11:41:16;97005.19;;;21.29;31.77
25350;BME280;13302;48.796;11.978;2023-07-13T11:44:14;96999.16;;;21.30;31.33
25350;BME280;13302;48.796;11.978;2023-07-13T11:47:16;97000.31;;;21.33;30.70
25350;BME280;13302;48.796;11.978;2023-07-13T11:50:04;97003.94;;;21.33;30.15
25350;BME280;13302;48.796;11.978;2023-07-13T11:52:54;97002.72;;;21.31;30.46
25350;BME280;13302;48.796;11.978;2023-07-13T11:55:43;97006.75;;;21.33;30.46
25350;BME280;13302;48.796;11.978;2023-07-13T11:58:30;97008.34;;;21.34;30.34
25350;BME280;13302;48.796;11.978;2023-07-13T12:01:22;97006.69;;;21.37;30.11
25350;BME280;13302;48.796;11.978;2023-07-13T12:04:42;97004.25;;;21.39;29.69
25350;BME280;13302;48.796;11.978;2023-07-13T12:07:31;97002.63;;;21.41;29.78
25350;BME280;13302;48.796;11.978;2023-07-13T12:10:24;96997.75;;;21.45;30.20
25350;BME280;13302;48.796;11.978;2023-07-13T12:13:12;97006.16;;;21.49;30.46
25350;BME280;13302;48.796;11.978;2023-07-13T12:15:59;97001.69;;;21.51;30.37
25350;BME280;13302;48.796;11.978;2023-07-13T12:18:46;97001.28;;;21.53;30.38
25350;BME280;13302;48.796;11.978;2023-07-13T12:21:37;96992.44;;;21.54;30.48
25350;BME280;13302;48.796;11.978;2023-07-13T12:24:26;96981.97;;;21.55;29.62
25350;BME280;13302;48.796;11.978;2023-07-13T12:27:22;96985.97;;;21.58;30.16
25350;BME280;13302;48.796;11.978;2023-07-13T12:30:30;96974.28;;;21.59;28.77
25350;BME280;13302;48.796;11.978;2023-07-13T12:33:18;96978.69;;;21.60;29.63
25350;BME280;13302;48.796;11.978;2023-07-13T12:36:06;96981.88;;;21.62;29.66
25350;BME280;13302;48.796;11.978;2023-07-13T12:38:53;96971.44;;;21.63;29.50
25350;BME280;13302;48.796;11.978;2023-07-13T12:41:41;96967.38;;;21.64;29.20
25350;BME280;13302;48.796;11.978;2023-07-13T12:44:30;96966.97;;;21.65;29.72
25350;BME280;13302;48.796;11.978;2023-07-13T12:47:20;96959.31;;;21.66;29.88
25350;BME280;13302;48.796;11.978;2023-07-13T12:50:16;96956.50;;;21.66;29.05
25350;BME280;13302;48.796;11.978;2023-07-13T12:53:05;96948.84;;;21.70;29.81
25350;BME280;13302;48.796;11.978;2023-07-13T12:55:58;96957.66;;;21.72;29.44
25350;BME280;13302;48.796;11.978;2023-07-13T12:58:47;96962.00;;;21.76;29.20
25350;BME280;13302;48.796;11.978;2023-07-13T13:01:41;96952.34;;;21.77;29.17
25350;BME280;13302;48.796;11.978;2023-07-13T13:04:28;96949.13;;;21.79;29.74
25350;BME280;13302;48.796;11.978;2023-07-13T13:07:15;96943.44;;;21.82;29.40
25350;BME280;13302;48.796;11.978;2023-07-13T13:10:11;96942.22;;;21.83;29.15
25350;BME280;13302;48.796;11.978;2023-07-13T13:12:59;96940.97;;;21.88;29.05
25350;BME280;13302;48.796;11.978;2023-07-13T13:15:46;96946.53;;;21.91;29.44
25350;BME280;13302;48.796;11.978;2023-07-13T13:18:34;96942.88;;;21.94;29.58
25350;BME280;13302;48.796;11.978;2023-07-13T13:21:24;96934.00;;;21.96;28.72
25350;BME280;13302;48.796;11.978;2023-07-13T13:24:13;96946.47;;;21.95;28.81
25350;BME280;13302;48.796;11.978;2023-07-13T13:27:01;96936.81;;;21.96;28.65
25350;BME280;13302;48.796;11.978;2023-07-13T13:29:52;96930.81;;;21.94;29.35
25350;BME280;13302;48.796;11.978;2023-07-13T13:32:40;96937.59;;;21.96;29.40
25350;BME280;13302;48.796;11.978;2023-07-13T13:35:28;96927.06;;;22.00;29.37
25350;BME280;13302;48.796;11.978;2023-07-13T13:38:24;96925.44;;;22.03;28.70
25350;BME280;13302;48.796;11.978;2023-07-13T13:41:13;96932.72;;;22.00;29.24
25350;BME280;13302;48.796;11.978;2023-07-13T13:44:00;96938.31;;;22.04;28.32
25350;BME280;13302;48.796;11.978;2023-07-13T13:46:50;96935.91;;;22.03;27.97
25350;BME280;13302;48.796;11.978;2023-07-13T13:49:38;96933.91;;;22.03;27.79
25350;BME280;13302;48.796;11.978;2023-07-13T13:52:25;96939.09;;;22.05;28.13
25350;BME280;13302;48.796;11.978;2023-07-13T13:55:18;96935.84;;;22.06;28.48
25350;BME280;13302;48.796;11.978;2023-07-13T13:58:05;96931.38;;;22.09;28.78
25350;BME280;13302;48.796;11.978;2023-07-13T14:00:53;96939.81;;;22.09;27.45
25350;BME280;13302;48.796;11.978;2023-07-13T14:03:40;96931.75;;;22.11;27.99
25350;BME280;13302;48.796;11.978;2023-07-13T14:06:27;96935.78;;;22.10;27.62
25350;BME280;13302;48.796;11.978;2023-07-13T14:09:18;96932.97;;;22.10;27.39
25350;BME280;13302;48.796;11.978;2023-07-13T14:12:09;96926.19;;;22.07;27.27
25350;BME280;13302;48.796;11.978;2023-07-13T14:14:58;96934.63;;;22.07;27.19
25350;BME280;13302;48.796;11.978;2023-07-13T14:17:45;96937.00;;;22.09;27.24
25350;BME280;13302;48.796;11.978;2023-07-13T14:20:36;96935.78;;;22.10;27.66
25350;BME280;13302;48.796;11.978;2023-07-13T14:23:23;96928.94;;;22.11;27.54
25350;BME280;13302;48.796;11.978;2023-07-13T14:26:12;96931.34;;;22.12;27.28
25350;BME280;13302;48.796;11.978;2023-07-13T14:29:00;96930.09;;;22.13;26.83
25350;BME280;13302;48.796;11.978;2023-07-13T14:31:47;96925.28;;;22.14;26.86
25350;BME280;13302;48.796;11.978;2023-07-13T14:34:35;96936.91;;;22.16;26.82
25350;BME280;13302;48.796;11.978;2023-07-13T14:37:23;96931.63;;;22.18;27.43
25350;BME280;13302;48.796;11.978;2023-07-13T14:40:25;96933.25;;;22.19;27.01
25350;BME280;13302;48.796;11.978;2023-07-13T14:43:15;96940.81;;;22.22;26.70
25350;BME280;13302;48.796;11.978;2023-07-13T14:46:02;96934.78;;;22.23;26.75
25350;BME280;13302;48.796;11.978;2023-07-13T14:48:51;96936.72;;;22.26;26.63
25350;BME280;13302;48.796;11.978;2023-07-13T14:51:38;96941.16;;;22.27;26.05
25350;BME280;13302;48.796;11.978;2023-07-13T14:54:25;96939.56;;;22.26;26.22
25350;BME280;13302;48.796;11.978;2023-07-13T14:57:15;96935.94;;;22.26;25.82
25350;BME280;13302;48.796;11.978;2023-07-13T15:00:02;96929.94;;;22.24;25.89